Time;durP1;ratioP1;P1;durP2;ratioP2;P2;SDS_P1;SDS_P2;PMS_P1;PMS_P2;Temp;Humidity;BMP_temperature;BMP_pressure;BME280_temperature;BME280_humidity;BME280_pressure;Samples;Min_cycle;Max_cycle;Signal;HPM_P1;HPM_P2
2022/03/31 00:00:32;;;;;;;14.32;7.38;;;12.50;65.50;;;;;;5052940;28;20129;-77
2022/03/31 00:02:59;;;;;;;13.43;6.97;;;12.50;65.40;;;;;;5052202;28;20037;-77
2022/03/31 00:05:26;;;;;;;13.70;7.47;;;12.50;65.70;;;;;;5052871;28;20052;-77
2022/03/31 00:08:16;;;;;;;16.48;7.55;;;12.50;65.80;;;;;;5052222;28;20037;-75
2022/03/31 00:11:00;;;;;;;16.05;7.20;;;12.50;65.90;;;;;;5052000;28;20033;-75
2022/03/31 00:13:29;;;;;;;17.33;7.97;;;12.50;66.10;;;;;;5052057;28;20064;-75
2022/03/31 00:15:58;;;;;;;12.95;7.13;;;12.40;65.80;;;;;;5051409;28;20033;-75
2022/03/31 00:18:26;;;;;;;13.88;7.28;;;12.40;65.70;;;;;;5052221;28;20059;-77
2022/03/31 00:20:52;;;;;;;16.48;7.50;;;12.40;65.70;;;;;;5051347;28;20055;-76
2022/03/31 00:23:18;;;;;;;18.15;8.25;;;12.40;65.90;;;;;;5052093;28;20382;-77
2022/03/31 00:25:44;;;;;;;17.50;7.35;;;12.40;66.20;;;;;;5051760;28;20036;-77
2022/03/31 00:28:11;;;;;;;17.05;7.32;;;12.40;66.20;;;;;;5051674;28;20452;-75
2022/03/31 00:30:37;;;;;;;12.35;7.22;;;12.40;66.30;;;;;;5066468;28;20132;-77
2022/03/31 00:33:03;;;;;;;15.85;7.57;;;12.40;66.50;;;;;;5073136;28;20052;-75
2022/03/31 00:35:30;;;;;;;20.23;8.05;;;12.40;66.30;;;;;;5072466;28;20039;-77
2022/03/31 00:37:56;;;;;;;13.43;7.22;;;12.40;65.80;;;;;;5071534;28;20036;-75
2022/03/31 00:40:23;;;;;;;18.48;7.47;;;12.40;66.50;;;;;;5073100;28;20029;-75
2022/03/31 00:43:09;;;;;;;18.17;7.72;;;12.40;66.50;;;;;;5074909;28;20413;-77
2022/03/31 00:45:46;;;;;;;14.10;6.32;;;12.40;66.70;;;;;;5091112;28;20065;-75
2022/03/31 00:48:15;;;;;;;13.77;6.45;;;12.40;66.40;;;;;;5091596;28;20036;-74
2022/03/31 00:50:42;;;;;;;13.77;5.90;;;12.40;66.50;;;;;;5091154;28;20032;-75
2022/03/31 00:53:08;;;;;;;15.75;5.28;;;12.40;66.80;;;;;;5077240;28;20046;-74
2022/03/31 00:55:35;;;;;;;12.23;6.03;;;12.30;67.20;;;;;;5067892;28;20036;-75
2022/03/31 00:58:01;;;;;;;11.65;5.97;;;12.30;67.10;;;;;;5051181;28;20616;-75
2022/03/31 01:00:29;;;;;;;12.98;6.00;;;12.30;67.40;;;;;;5050203;28;20037;-74
2022/03/31 01:02:55;;;;;;;13.98;5.53;;;12.30;67.60;;;;;;5051084;28;20502;-74
2022/03/31 01:05:21;;;;;;;;;;;12.30;67.00;;;;;;5052399;28;20029;-76
2022/03/31 01:07:47;;;;;;;19.42;6.40;;;12.30;66.90;;;;;;5053388;28;19917;-76
2022/03/31 01:10:14;;;;;;;11.23;5.53;;;12.30;67.50;;;;;;5051706;28;20037;-77
2022/03/31 01:12:42;;;;;;;11.75;5.45;;;12.20;67.70;;;;;;5050886;28;20414;-76
2022/03/31 01:15:26;;;;;;;14.18;6.72;;;12.20;67.80;;;;;;5050639;28;20494;-74
2022/03/31 01:17:53;;;;;;;16.65;6.80;;;12.20;68.20;;;;;;5050462;28;20383;-75
2022/03/31 01:20:21;;;;;;;13.55;6.10;;;12.20;68.10;;;;;;5050248;28;20064;-74
2022/03/31 01:22:50;;;;;;;19.38;9.52;;;12.20;68.10;;;;;;5052991;28;20040;-74
2022/03/31 01:25:16;;;;;;;24.00;10.05;;;12.20;68.20;;;;;;5051357;28;20520;-76
2022/03/31 01:27:44;;;;;;;22.05;11.88;;;12.20;67.80;;;;;;5070314;28;20048;-74
2022/03/31 01:30:16;;;;;;;19.95;12.63;;;12.20;68.40;;;;;;5053203;28;20036;-74
2022/03/31 01:32:44;;;;;;;17.42;7.30;;;12.20;68.60;;;;;;5070625;28;20067;-74
2022/03/31 01:35:12;;;;;;;16.98;6.72;;;12.20;68.80;;;;;;5069949;28;20036;-74
2022/03/31 01:37:38;;;;;;;16.42;7.10;;;12.10;69.00;;;;;;5071114;28;20036;-74
2022/03/31 01:40:06;;;;;;;;;;;12.10;69.50;;;;;;5070833;28;20115;-74
2022/03/31 01:42:34;;;;;;;15.70;7.68;;;12.00;68.60;;;;;;5073108;28;19970;-75
2022/03/31 01:45:00;;;;;;;19.52;8.18;;;12.00;69.30;;;;;;5090692;28;20035;-74
2022/03/31 01:47:27;;;;;;;20.63;10.32;;;12.00;69.50;;;;;;5072893;28;20043;-74
2022/03/31 01:49:53;;;;;;;;;;;12.00;69.10;;;;;;5073993;28;20100;-76
2022/03/31 01:52:22;;;;;;;19.27;9.30;;;12.00;69.00;;;;;;5063032;28;19919;-76
2022/03/31 01:54:49;;;;;;;20.58;9.30;;;11.90;69.50;;;;;;5050293;28;20037;-76
2022/03/31 01:57:16;;;;;;;18.40;8.63;;;11.90;70.00;;;;;;5038834;28;20032;-76
2022/03/31 01:59:42;;;;;;;20.60;9.88;;;11.90;70.00;;;;;;5053206;28;20048;-74
2022/03/31 02:02:12;;;;;;;17.58;8.45;;;11.90;69.60;;;;;;5052888;28;20032;-74
2022/03/31 02:04:40;;;;;;;13.23;7.68;;;11.90;70.30;;;;;;5070795;28;20038;-74
2022/03/31 02:07:07;;;;;;;19.00;8.88;;;11.90;70.40;;;;;;5069285;28;20044;-74
2022/03/31 02:09:33;;;;;;;23.88;10.00;;;11.90;70.40;;;;;;5070182;28;20044;-74
2022/03/31 02:12:00;;;;;;;24.75;7.78;;;11.90;70.60;;;;;;5068241;28;20115;-76
2022/03/31 02:14:26;;;;;;;;;;;11.90;69.90;;;;;;5070041;28;20133;-76
2022/03/31 02:16:52;;;;;;;12.75;5.43;;;11.90;69.20;;;;;;5069835;28;19912;-74
2022/03/31 02:19:18;;;;;;;12.65;5.82;;;11.90;70.10;;;;;;5071340;28;20397;-74
2022/03/31 02:21:46;;;;;;;15.07;6.32;;;11.90;70.10;;;;;;5067343;28;21859;-76
2022/03/31 02:24:14;;;;;;;19.42;7.30;;;11.90;70.30;;;;;;5057141;28;20041;-76
2022/03/31 02:26:41;;;;;;;18.67;8.40;;;11.90;70.40;;;;;;5048605;28;20102;-76
2022/03/31 02:29:07;;;;;;;16.27;8.88;;;11.90;70.60;;;;;;5049606;28;20021;-74
2022/03/31 02:31:34;;;;;;;16.00;8.45;;;11.90;70.20;;;;;;5049620;28;20036;-76
2022/03/31 02:34:00;;;;;;;19.08;8.70;;;11.90;70.30;;;;;;5049020;28;20068;-76
2022/03/31 02:36:30;;;;;;;20.52;8.73;;;11.90;71.20;;;;;;5050318;28;20092;-76
2022/03/31 02:38:57;;;;;;;22.42;7.97;;;11.90;71.10;;;;;;5049391;28;20036;-76
2022/03/31 02:41:23;;;;;;;20.83;9.27;;;11.90;71.20;;;;;;5031721;28;20530;-76
2022/03/31 02:43:49;;;;;;;15.50;8.20;;;11.90;72.10;;;;;;5050121;28;20379;-73
2022/03/31 02:46:15;;;;;;;18.13;9.35;;;11.90;71.30;;;;;;5028525;28;20363;-74
2022/03/31 02:48:41;;;;;;;24.20;10.45;;;11.90;71.40;;;;;;5052329;28;20033;-76
2022/03/31 02:51:07;;;;;;;21.90;9.82;;;11.80;71.50;;;;;;5069781;28;20056;-76
2022/03/31 02:56:18;;;;;;;19.75;12.23;;;11.80;71.90;;;;;;5069687;28;20055;-73
2022/03/31 02:58:44;;;;;;;16.42;9.50;;;11.80;72.00;;;;;;5051466;28;20033;-76
2022/03/31 03:01:10;;;;;;;26.30;11.13;;;11.80;72.00;;;;;;5032783;28;20518;-75
2022/03/31 03:03:37;;;;;;;18.63;8.07;;;11.80;72.10;;;;;;5052769;28;20043;-74
2022/03/31 03:06:03;;;;;;;17.48;6.60;;;11.70;72.10;;;;;;5050860;28;20064;-75
2022/03/31 03:08:31;;;;;;;14.80;5.88;;;11.80;72.00;;;;;;5052552;28;20028;-75
2022/03/31 03:11:00;;;;;;;16.17;6.25;;;11.70;72.10;;;;;;5050974;28;20029;-74
2022/03/31 03:13:26;;;;;;;12.13;6.80;;;11.70;71.90;;;;;;5052500;28;20040;-75
2022/03/31 03:15:54;;;;;;;;;;;11.80;71.80;;;;;;5051484;28;20147;-76
2022/03/31 03:18:20;;;;;;;16.98;5.72;;;11.80;71.20;;;;;;5051105;28;19923;-75
2022/03/31 03:20:46;;;;;;;14.73;5.63;;;11.80;71.10;;;;;;5050646;28;20055;-76
2022/03/31 03:23:12;;;;;;;12.73;5.05;;;11.80;71.10;;;;;;5051036;28;20500;-73
2022/03/31 03:25:38;;;;;;;13.40;4.80;;;11.90;71.20;;;;;;5051785;28;20037;-75
2022/03/31 03:28:05;;;;;;;9.00;4.22;;;11.90;71.00;;;;;;5051126;28;20033;-74
2022/03/31 03:30:31;;;;;;;;;;;11.90;71.00;;;;;;5051276;28;20033;-75
2022/03/31 03:32:57;;;;;;;10.98;5.45;;;11.90;70.00;;;;;;5068156;28;19920;-75
2022/03/31 03:35:23;;;;;;;11.13;5.30;;;11.90;71.10;;;;;;5054198;28;20290;-73
2022/03/31 03:37:49;;;;;;;9.40;4.85;;;11.80;71.40;;;;;;5072812;28;20473;-75
2022/03/31 03:40:16;;;;;;;11.80;5.38;;;11.80;71.70;;;;;;5070826;28;20033;-74
2022/03/31 03:42:43;;;;;;;13.20;5.10;;;11.80;71.90;;;;;;5071221;28;20040;-75
2022/03/31 03:47:58;;;;;;;12.23;4.72;;;11.80;71.60;;;;;;5068281;28;20044;-75
2022/03/31 03:50:25;;;;;;;12.85;4.78;;;11.90;71.50;;;;;;5069334;28;20107;-75
2022/03/31 03:52:52;;;;;;;13.45;5.18;;;11.90;71.50;;;;;;5068627;28;20029;-75
2022/03/31 03:55:18;;;;;;;11.48;4.47;;;11.90;71.50;;;;;;5068398;28;20028;-76
2022/03/31 03:57:45;;;;;;;11.73;4.35;;;11.90;70.90;;;;;;5064736;28;20036;-75
2022/03/31 04:00:12;;;;;;;9.55;4.53;;;11.90;71.30;;;;;;5069138;28;20036;-73
2022/03/31 04:02:39;;;;;;;7.68;3.83;;;11.90;70.60;;;;;;5068652;28;20029;-74
2022/03/31 04:05:05;;;;;;;9.98;3.75;;;11.90;71.20;;;;;;5068998;28;20509;-73
2022/03/31 04:07:32;;;;;;;10.70;4.20;;;11.90;71.50;;;;;;5068799;28;20047;-76
2022/03/31 04:09:58;;;;;;;8.65;3.90;;;11.90;72.60;;;;;;5068226;28;20492;-75
2022/03/31 04:12:24;;;;;;;17.23;4.35;;;11.90;71.70;;;;;;5067832;28;20122;-76
2022/03/31 04:14:50;;;;;;;11.73;4.45;;;11.90;71.80;;;;;;5069607;28;20024;-74
2022/03/31 04:17:16;;;;;;;11.23;4.13;;;11.90;71.80;;;;;;5067847;28;20103;-76
2022/03/31 04:19:43;;;;;;;;;;;11.90;71.80;;;;;;5052316;28;20033;-75
2022/03/31 04:22:10;;;;;;;11.48;3.67;;;11.90;71.40;;;;;;5049280;28;20008;-76
2022/03/31 04:24:36;;;;;;;9.27;4.00;;;11.90;71.20;;;;;;5048114;28;20405;-76
2022/03/31 04:27:02;;;;;;;;;;;11.90;71.30;;;;;;5049000;28;20090;-74
2022/03/31 04:29:28;;;;;;;7.25;3.63;;;11.90;70.90;;;;;;5048356;28;20414;-74
2022/03/31 04:31:55;;;;;;;9.77;3.83;;;11.90;70.90;;;;;;5063457;28;20554;-76
2022/03/31 04:34:21;;;;;;;12.60;5.15;;;11.90;71.30;;;;;;5069794;28;20424;-73
2022/03/31 04:36:48;;;;;;;7.50;3.67;;;11.90;71.40;;;;;;5069112;28;20055;-75
2022/03/31 04:39:15;;;;;;;10.00;4.32;;;11.90;71.70;;;;;;5072957;28;20044;-74
2022/03/31 04:41:42;;;;;;;8.30;4.15;;;11.80;71.50;;;;;;5050701;28;20073;-74
2022/03/31 04:44:09;;;;;;;11.70;3.65;;;11.80;71.90;;;;;;5053251;28;20033;-75
2022/03/31 04:46:35;;;;;;;19.63;4.50;;;11.80;72.20;;;;;;5072353;28;20036;-76
2022/03/31 04:49:03;;;;;;;10.52;3.65;;;11.80;72.50;;;;;;5088178;28;20135;-75
2022/03/31 04:51:29;;;;;;;9.65;3.47;;;11.70;72.40;;;;;;5071100;28;20131;-76
2022/03/31 04:53:55;;;;;;;;;;;11.70;72.70;;;;;;5071585;28;20036;-76
2022/03/31 04:56:21;;;;;;;14.65;5.63;;;11.70;72.20;;;;;;5087606;28;19934;-76
2022/03/31 04:58:48;;;;;;;;;;;11.70;72.30;;;;;;5071772;28;20111;-73
2022/03/31 05:01:16;;;;;;;11.82;5.32;;;11.70;72.10;;;;;;5071623;28;19916;-74
2022/03/31 05:03:42;;;;;;;14.10;8.32;;;11.60;72.40;;;;;;5071146;28;20405;-76
2022/03/31 05:06:08;;;;;;;16.77;8.82;;;11.60;72.80;;;;;;5071780;28;20075;-74
2022/03/31 05:08:35;;;;;;;12.13;5.88;;;11.60;72.80;;;;;;5071142;28;20039;-74
2022/03/31 05:11:01;;;;;;;13.52;5.90;;;11.60;72.90;;;;;;5070578;28;20397;-73
2022/03/31 05:13:27;;;;;;;13.05;6.90;;;11.60;73.10;;;;;;5072028;28;20561;-74
2022/03/31 05:15:53;;;;;;;16.67;7.80;;;11.60;73.20;;;;;;5071773;28;20581;-75
2022/03/31 05:18:19;;;;;;;15.75;5.85;;;11.60;74.30;;;;;;5070568;28;20024;-73
2022/03/31 05:20:46;;;;;;;14.00;5.60;;;11.60;73.70;;;;;;5071978;28;20100;-75
2022/03/31 05:23:12;;;;;;;9.30;3.72;;;11.60;73.70;;;;;;5053773;28;20481;-73
2022/03/31 05:25:39;;;;;;;8.15;3.80;;;11.60;73.70;;;;;;5070956;28;20056;-74
2022/03/31 05:28:06;;;;;;;10.70;4.88;;;11.60;73.50;;;;;;5070503;28;20117;-75
2022/03/31 05:30:33;;;;;;;7.13;3.47;;;11.60;73.10;;;;;;5070665;28;20387;-75
2022/03/31 05:32:59;;;;;;;8.65;4.10;;;11.60;73.10;;;;;;5070319;28;20048;-74
2022/03/31 05:35:27;;;;;;;9.20;4.30;;;11.60;73.90;;;;;;5069889;28;20029;-76
2022/03/31 05:37:54;;;;;;;9.07;3.90;;;11.60;73.90;;;;;;5072506;28;20039;-75
2022/03/31 05:40:21;;;;;;;8.02;3.88;;;11.60;73.40;;;;;;5072648;28;20112;-75
2022/03/31 05:42:47;;;;;;;13.52;5.57;;;11.60;73.90;;;;;;5056214;28;20375;-75
2022/03/31 05:45:14;;;;;;;10.65;5.88;;;11.70;74.00;;;;;;5072575;28;20055;-74
2022/03/31 05:47:43;;;;;;;8.63;3.60;;;11.60;73.70;;;;;;5056231;28;20040;-74
2022/03/31 05:50:11;;;;;;;7.28;3.90;;;11.70;73.70;;;;;;5073633;28;20028;-74
2022/03/31 05:52:38;;;;;;;9.30;4.68;;;11.70;73.50;;;;;;5073006;28;20032;-74
2022/03/31 05:55:07;;;;;;;10.18;3.85;;;11.80;73.30;;;;;;5072667;28;20128;-76
2022/03/31 05:57:52;;;;;;;7.28;3.25;;;11.80;73.40;;;;;;5072541;28;20040;-75
2022/03/31 06:00:20;;;;;;;7.45;2.92;;;11.80;73.90;;;;;;5073284;28;20115;-74
2022/03/31 06:02:49;;;;;;;14.48;7.43;;;11.70;73.60;;;;;;5072752;28;20036;-73
2022/03/31 06:05:16;;;;;;;23.52;11.70;;;11.80;73.50;;;;;;5072282;28;20042;-75
2022/03/31 06:07:42;;;;;;;21.27;8.07;;;11.80;73.60;;;;;;5072366;28;20067;-74
2022/03/31 06:10:09;;;;;;;23.92;11.50;;;11.80;73.70;;;;;;5072042;28;20090;-75
2022/03/31 06:12:35;;;;;;;21.08;10.68;;;11.80;72.90;;;;;;5071652;28;20433;-76
2022/03/31 06:15:02;;;;;;;;;;;11.90;73.60;;;;;;5056240;28;20036;-74
2022/03/31 06:17:29;;;;;;;12.90;5.88;;;11.90;73.00;;;;;;5071831;28;20018;-74
2022/03/31 06:19:55;;;;;;;9.70;2.92;;;11.90;73.10;;;;;;5072400;28;20049;-74
2022/03/31 06:22:21;;;;;;;5.97;2.60;;;11.90;73.20;;;;;;5073307;28;20028;-76
2022/03/31 06:24:47;;;;;;;11.57;2.97;;;11.90;73.30;;;;;;5073397;28;20036;-73
2022/03/31 06:27:13;;;;;;;6.00;2.55;;;12.00;73.40;;;;;;5059548;28;20040;-74
2022/03/31 06:29:45;;;;;;;7.15;3.67;;;11.90;73.40;;;;;;5069319;28;20036;-74
2022/03/31 06:32:13;;;;;;;8.95;4.93;;;12.00;73.40;;;;;;5070211;28;20044;-76
2022/03/31 06:34:40;;;;;;;8.43;4.22;;;11.90;73.50;;;;;;5070027;28;20052;-74
2022/03/31 06:37:07;;;;;;;11.60;5.82;;;11.90;73.70;;;;;;5070207;28;20121;-76
2022/03/31 06:39:33;;;;;;;9.18;5.25;;;11.90;73.70;;;;;;5071938;28;20024;-73
2022/03/31 06:42:00;;;;;;;6.85;3.22;;;11.90;73.90;;;;;;5072965;28;20443;-75
2022/03/31 06:44:26;;;;;;;;;;;11.90;74.00;;;;;;5072409;28;20037;-74
2022/03/31 06:46:52;;;;;;;5.60;2.45;;;11.90;73.70;;;;;;5060119;28;19927;-73
2022/03/31 06:49:18;;;;;;;;;;;11.80;73.80;;;;;;5033763;28;20037;-75
2022/03/31 06:51:46;;;;;;;6.47;2.55;;;11.80;72.90;;;;;;5048263;28;20394;-75
2022/03/31 06:54:12;;;;;;;6.55;1.95;;;11.90;73.90;;;;;;5049888;28;20033;-74
2022/03/31 06:56:38;;;;;;;5.50;2.10;;;11.90;74.10;;;;;;5049923;28;20037;-73
2022/03/31 06:59:04;;;;;;;8.00;2.45;;;11.90;74.00;;;;;;5033550;28;20099;-76
2022/03/31 07:01:31;;;;;;;7.78;2.88;;;12.00;73.80;;;;;;5049280;28;20033;-76
2022/03/31 07:03:57;;;;;;;5.22;2.05;;;12.00;73.80;;;;;;5050062;28;20041;-76
2022/03/31 07:06:23;;;;;;;5.72;2.78;;;12.00;73.70;;;;;;5048345;28;20561;-76
2022/03/31 07:08:50;;;;;;;7.40;3.00;;;12.00;73.60;;;;;;5050427;28;20060;-74
2022/03/31 07:11:16;;;;;;;6.97;3.08;;;12.10;73.60;;;;;;5066466;28;20036;-74
2022/03/31 07:13:43;;;;;;;;;;;12.10;73.40;;;;;;5070029;28;20029;-76
2022/03/31 07:16:10;;;;;;;7.00;3.60;;;12.10;73.10;;;;;;5067966;28;20295;-74
2022/03/31 07:18:36;;;;;;;8.32;3.95;;;12.10;72.60;;;;;;5071230;28;20028;-76
2022/03/31 07:21:02;;;;;;;;;;;12.10;73.50;;;;;;5072726;28;20041;-77
2022/03/31 07:23:28;;;;;;;7.95;3.65;;;12.10;73.40;;;;;;5071465;28;19916;-73
2022/03/31 07:26:15;;;;;;;8.05;3.47;;;12.00;73.30;;;;;;5070715;28;20127;-74
2022/03/31 07:28:41;;;;;;;8.45;3.47;;;12.00;73.50;;;;;;5054587;28;20032;-76
2022/03/31 07:31:08;;;;;;;13.00;6.30;;;12.00;73.70;;;;;;5070734;28;20045;-76
2022/03/31 07:33:34;;;;;;;12.20;6.20;;;12.00;73.90;;;;;;5054481;28;20024;-76
2022/03/31 07:36:00;;;;;;;;;;;12.00;73.90;;;;;;5072451;28;20033;-74
2022/03/31 07:38:26;;;;;;;9.50;5.07;;;12.00;73.50;;;;;;5070319;28;19912;-74
2022/03/31 07:40:53;;;;;;;9.20;4.28;;;12.00;73.50;;;;;;5073751;28;20032;-74
2022/03/31 07:43:19;;;;;;;8.25;4.57;;;12.00;72.80;;;;;;5070505;28;20041;-74
2022/03/31 07:45:47;;;;;;;7.68;3.65;;;12.00;73.70;;;;;;5052743;28;20037;-75
2022/03/31 07:48:15;;;;;;;8.45;4.00;;;12.00;73.50;;;;;;5048427;28;20487;-73
2022/03/31 07:50:42;;;;;;;9.80;4.90;;;12.00;73.70;;;;;;5032137;28;20056;-74
2022/03/31 07:55:55;;;;;;;25.52;5.57;;;12.00;73.90;;;;;;5060104;28;20329;-74
2022/03/31 07:58:21;;;;;;;7.85;4.18;;;12.00;74.10;;;;;;5049827;28;20040;-74
2022/03/31 08:00:50;;;;;;;9.90;4.13;;;12.10;73.40;;;;;;5047718;28;20025;-74
2022/03/31 08:03:18;;;;;;;8.60;4.25;;;12.10;73.80;;;;;;5048555;28;20041;-73
2022/03/31 08:05:46;;;;;;;10.82;5.20;;;12.20;73.50;;;;;;5048611;28;20036;-75
2022/03/31 08:08:13;;;;;;;9.70;5.85;;;12.20;73.30;;;;;;5048404;28;20403;-73
2022/03/31 08:10:40;;;;;;;10.65;5.20;;;12.40;73.10;;;;;;5052218;28;20041;-75
2022/03/31 08:13:06;;;;;;;7.90;4.28;;;12.40;72.10;;;;;;5035493;28;20040;-73
2022/03/31 08:15:33;;;;;;;8.60;4.22;;;12.50;72.70;;;;;;5034881;28;20037;-75
2022/03/31 08:17:59;;;;;;;9.10;3.90;;;12.60;72.70;;;;;;5052372;28;20048;-75
2022/03/31 08:20:25;;;;;;;;;;;12.70;72.60;;;;;;5052524;28;20025;-73
2022/03/31 08:22:51;;;;;;;7.60;3.25;;;12.80;72.20;;;;;;5051623;28;19928;-73
2022/03/31 08:25:18;;;;;;;;;;;12.80;72.10;;;;;;5052105;28;20044;-76
2022/03/31 08:27:45;;;;;;;11.38;4.50;;;12.70;72.00;;;;;;5051428;28;20398;-73
2022/03/31 08:30:16;;;;;;;11.75;5.90;;;12.80;72.10;;;;;;5051372;28;20049;-73
2022/03/31 08:32:46;;;;;;;10.05;3.70;;;12.80;72.20;;;;;;5044036;28;20479;-76
2022/03/31 08:35:14;;;;;;;9.70;5.28;;;12.90;72.20;;;;;;5051527;28;20048;-75
2022/03/31 08:37:41;;;;;;;12.13;4.90;;;12.90;72.20;;;;;;5051240;28;20037;-74
2022/03/31 08:40:14;;;;;;;13.73;5.85;;;13.00;72.00;;;;;;5034637;28;20041;-76
2022/03/31 08:42:41;;;;;;;7.47;3.67;;;13.10;71.80;;;;;;5031612;28;20037;-74
2022/03/31 08:45:25;;;;;;;8.23;3.58;;;13.20;71.70;;;;;;5037487;28;20037;-74
2022/03/31 08:47:54;;;;;;;12.43;5.80;;;13.30;71.90;;;;;;5048655;28;20491;-74
2022/03/31 08:50:22;;;;;;;12.55;6.93;;;13.40;71.70;;;;;;5033783;28;20036;-75
2022/03/31 08:52:49;;;;;;;9.80;5.60;;;13.30;71.70;;;;;;5050919;28;20096;-75
2022/03/31 08:55:15;;;;;;;7.55;4.03;;;13.30;71.70;;;;;;5050165;28;20037;-74
2022/03/31 08:58:02;;;;;;;7.22;3.88;;;13.20;71.80;;;;;;5033959;28;20037;-74
2022/03/31 09:00:28;;;;;;;9.90;5.25;;;13.10;72.20;;;;;;5050141;28;20288;-75
2022/03/31 09:03:12;;;;;;;;;;;13.10;71.50;;;;;;5051187;28;20099;-73
2022/03/31 09:05:57;;;;;;;4.60;2.08;;;13.10;71.80;;;;;;5034494;28;19920;-75
2022/03/31 09:08:23;;;;;;;7.55;2.83;;;13.10;72.10;;;;;;5050210;28;20056;-75
2022/03/31 09:10:53;;;;;;;;;;;13.10;72.10;;;;;;5032116;28;20075;-74
2022/03/31 09:13:40;;;;;;;10.18;3.92;;;13.10;71.70;;;;;;5043948;28;20301;-74
2022/03/31 09:16:45;;;;;;;14.80;6.10;;;13.10;72.10;;;;;;5063379;28;20432;-74
2022/03/31 09:19:15;;;;;;;20.63;10.45;;;13.00;72.20;;;;;;5072039;28;20044;-75
2022/03/31 09:22:01;;;;;;;8.25;4.35;;;12.90;73.20;;;;;;5072569;28;20032;-74
2022/03/31 09:24:29;;;;;;;6.40;3.42;;;12.90;72.50;;;;;;5073539;28;20032;-74
2022/03/31 09:26:58;;;;;;;18.50;8.63;;;12.90;72.40;;;;;;5055662;28;20056;-75
2022/03/31 09:29:26;;;;;;;12.48;6.32;;;12.90;72.60;;;;;;5074548;28;20029;-73
2022/03/31 09:32:14;;;;;;;16.48;7.05;;;12.90;72.50;;;;;;5056284;28;20485;-76
2022/03/31 09:35:20;;;;;;;16.33;8.10;;;12.80;72.60;;;;;;5073004;28;20029;-76
2022/03/31 09:37:49;;;;;;;16.23;7.75;;;12.80;72.70;;;;;;5074760;28;20037;-74
2022/03/31 09:40:35;;;;;;;10.82;5.70;;;12.80;72.70;;;;;;5073053;28;20119;-75
2022/03/31 09:43:01;;;;;;;11.35;6.28;;;12.70;73.00;;;;;;5073035;28;20090;-74
2022/03/31 09:45:46;;;;;;;12.85;7.10;;;12.70;73.00;;;;;;5072681;28;20032;-76
2022/03/31 09:48:31;;;;;;;9.32;5.55;;;12.80;73.20;;;;;;5072830;28;20052;-74
2022/03/31 09:50:57;;;;;;;7.70;4.43;;;12.80;73.00;;;;;;5072457;28;20119;-75
2022/03/31 09:53:30;;;;;;;10.20;4.95;;;12.90;72.70;;;;;;5072880;28;20037;-75
2022/03/31 09:55:56;;;;;;;10.20;5.35;;;12.90;72.50;;;;;;5071398;28;20043;-73
2022/03/31 09:58:23;;;;;;;22.65;11.55;;;13.00;71.80;;;;;;5073963;28;20489;-74
2022/03/31 10:00:50;;;;;;;15.60;7.05;;;13.00;72.40;;;;;;5072295;28;20500;-75
2022/03/31 10:03:17;;;;;;;8.57;4.07;;;12.90;72.50;;;;;;5072960;28;20492;-76
2022/03/31 10:05:45;;;;;;;49.53;16.13;;;13.00;72.60;;;;;;5073272;28;20119;-76
2022/03/31 10:08:12;;;;;;;61.75;20.67;;;13.00;72.20;;;;;;5072489;28;20028;-74
2022/03/31 10:10:39;;;;;;;49.08;17.08;;;12.90;72.40;;;;;;5054430;28;20571;-76
2022/03/31 10:13:27;;;;;;;11.93;6.80;;;12.80;72.90;;;;;;5072595;28;20458;-73
2022/03/31 10:16:50;;;;;;;21.20;10.98;;;12.80;73.30;;;;;;5072022;28;20442;-76
2022/03/31 10:19:37;;;;;;;11.80;5.95;;;12.70;73.50;;;;;;5073662;28;20501;-75
2022/03/31 10:25:46;;;;;;;13.10;6.78;;;12.60;73.80;;;;;;5072331;28;20039;-76
2022/03/31 10:28:33;;;;;;;8.98;4.55;;;12.50;74.00;;;;;;5072064;28;20076;-75
2022/03/31 10:31:04;;;;;;;12.35;6.05;;;12.50;74.40;;;;;;5071483;28;20512;-74
2022/03/31 10:33:51;;;;;;;14.43;8.43;;;12.50;74.30;;;;;;5071641;28;20032;-74
2022/03/31 10:36:20;;;;;;;13.70;7.85;;;12.50;74.50;;;;;;5071510;28;20037;-75
2022/03/31 10:39:07;;;;;;;17.30;8.32;;;12.50;74.50;;;;;;5073172;28;20052;-74
2022/03/31 10:42:11;;;;;;;;;;;12.50;74.50;;;;;;5071374;28;20483;-74
2022/03/31 10:44:38;;;;;;;18.70;11.95;;;12.50;73.50;;;;;;5071914;28;19912;-74
2022/03/31 10:47:06;;;;;;;;;;;12.50;73.80;;;;;;5071861;28;20043;-73
2022/03/31 10:49:34;;;;;;;15.38;9.55;;;12.60;73.30;;;;;;5071819;28;20351;-75
2022/03/31 10:52:12;;;;;;;14.10;7.75;;;12.60;73.30;;;;;;5071402;28;20098;-75
2022/03/31 10:54:38;;;;;;;10.68;5.97;;;12.60;73.50;;;;;;5071733;28;20036;-74
2022/03/31 10:57:24;;;;;;;12.80;6.50;;;12.70;73.60;;;;;;5071947;28;20075;-74
2022/03/31 10:59:50;;;;;;;12.18;5.43;;;12.60;73.90;;;;;;5072931;28;20039;-74
2022/03/31 11:02:22;;;;;;;;;;;12.60;73.90;;;;;;5072927;28;20075;-74
2022/03/31 11:05:07;;;;;;;9.43;3.60;;;12.60;73.50;;;;;;5071625;28;19959;-74
2022/03/31 11:07:33;;;;;;;8.23;3.50;;;12.60;73.90;;;;;;5073127;28;20033;-74
2022/03/31 11:10:19;;;;;;;9.32;3.60;;;12.60;73.90;;;;;;5071907;28;20481;-75
2022/03/31 11:12:47;;;;;;;6.20;3.03;;;12.60;74.10;;;;;;5072159;28;20040;-74
2022/03/31 11:15:17;;;;;;;7.40;3.17;;;12.60;74.10;;;;;;5049758;28;20037;-76
2022/03/31 11:17:44;;;;;;;9.90;4.90;;;12.60;74.10;;;;;;5068878;28;20183;-76
2022/03/31 11:20:29;;;;;;;24.48;12.27;;;12.60;73.90;;;;;;5068960;28;20028;-76
2022/03/31 11:23:00;;;;;;;32.53;19.20;;;12.70;74.20;;;;;;5069340;28;20055;-76
2022/03/31 11:25:27;;;;;;;13.65;8.43;;;12.70;73.90;;;;;;5069097;28;20090;-74
2022/03/31 11:27:53;;;;;;;11.98;7.28;;;12.60;74.10;;;;;;5069920;28;20041;-74
2022/03/31 11:30:22;;;;;;;;;;;12.60;74.20;;;;;;5070113;28;20041;-76
2022/03/31 11:32:53;;;;;;;10.00;4.90;;;12.60;73.80;;;;;;5068713;28;19928;-74
2022/03/31 11:35:23;;;;;;;6.88;2.45;;;12.60;74.00;;;;;;5051842;28;20020;-74
2022/03/31 11:38:27;;;;;;;4.32;1.85;;;12.60;74.10;;;;;;5068893;28;20037;-74
2022/03/31 11:40:53;;;;;;;6.70;2.35;;;12.50;74.90;;;;;;5069749;28;20024;-76
2022/03/31 11:43:20;;;;;;;6.32;2.50;;;12.50;75.30;;;;;;5070997;28;20183;-75
2022/03/31 11:46:05;;;;;;;6.07;2.30;;;12.40;75.60;;;;;;5055198;28;20033;-73
2022/03/31 11:48:52;;;;;;;6.15;2.47;;;12.40;76.00;;;;;;5072105;28;20041;-74
2022/03/31 11:51:18;;;;;;;5.55;2.53;;;12.40;76.00;;;;;;5071130;28;20136;-76
2022/03/31 11:53:47;;;;;;;7.43;3.60;;;12.40;75.60;;;;;;5072289;28;20068;-76
2022/03/31 11:56:33;;;;;;;17.45;11.57;;;12.50;75.40;;;;;;5072607;28;20075;-74
2022/03/31 11:58:59;;;;;;;18.58;12.65;;;12.50;75.60;;;;;;5072220;28;20045;-76
2022/03/31 12:01:45;;;;;;;14.40;8.48;;;12.40;75.50;;;;;;5073345;28;20036;-74
2022/03/31 12:04:31;;;;;;;14.82;6.32;;;12.40;76.00;;;;;;5072452;28;20589;-74
2022/03/31 12:07:02;;;;;;;20.17;10.15;;;12.30;76.00;;;;;;5071709;28;20029;-76
2022/03/31 12:09:28;;;;;;;14.98;7.43;;;12.40;76.00;;;;;;5055815;28;20479;-75
2022/03/31 12:12:13;;;;;;;;;;;12.40;76.00;;;;;;5073579;28;20075;-74
2022/03/31 12:14:50;;;;;;;14.68;6.10;;;12.40;75.40;;;;;;5073243;28;19913;-75
2022/03/31 12:17:19;;;;;;;12.00;4.00;;;12.40;75.20;;;;;;5072722;28;20031;-76
2022/03/31 12:19:45;;;;;;;6.50;2.50;;;12.40;74.90;;;;;;5055486;28;20067;-76
2022/03/31 12:22:12;;;;;;;4.80;2.03;;;12.30;75.10;;;;;;5073271;28;20029;-74
2022/03/31 12:24:56;;;;;;;;;;;12.30;74.50;;;;;;5072817;28;20040;-76
2022/03/31 12:27:24;;;;;;;5.82;2.25;;;12.20;74.60;;;;;;5071222;28;19970;-75
2022/03/31 12:30:09;;;;;;;5.00;2.00;;;12.30;74.70;;;;;;5072764;28;20078;-76
2022/03/31 12:32:47;;;;;;;7.57;2.17;;;12.20;74.50;;;;;;5055163;28;20027;-75
2022/03/31 12:35:13;;;;;;;7.53;2.70;;;12.30;74.40;;;;;;5072075;28;20050;-76
2022/03/31 12:37:45;;;;;;;7.65;3.42;;;12.40;74.00;;;;;;5071093;28;20036;-74
2022/03/31 12:40:31;;;;;;;7.57;2.85;;;12.50;73.50;;;;;;5070480;28;20094;-76
2022/03/31 12:43:00;;;;;;;12.40;3.05;;;12.70;73.00;;;;;;5073216;28;20041;-75
2022/03/31 12:48:13;;;;;;;;;;;13.20;71.40;;;;;;5062291;28;20124;-76
2022/03/31 12:50:40;;;;;;;12.32;3.72;;;13.50;70.60;;;;;;5074501;28;19912;-74
2022/03/31 12:53:06;;;;;;;11.75;5.72;;;13.90;68.90;;;;;;5074035;28;20032;-74
2022/03/31 12:55:34;;;;;;;;;;;14.30;68.20;;;;;;5047842;28;20044;-75
2022/03/31 12:58:03;;;;;;;12.07;6.10;;;14.40;68.00;;;;;;5073829;28;19965;-73
2022/03/31 13:00:32;;;;;;;11.52;4.60;;;14.50;67.30;;;;;;5073342;28;20097;-75
2022/03/31 13:02:59;;;;;;;12.15;5.57;;;14.40;67.50;;;;;;5046894;28;20106;-73
2022/03/31 13:05:28;;;;;;;12.60;6.15;;;14.20;68.10;;;;;;5060394;28;20035;-74
2022/03/31 13:07:56;;;;;;;9.63;4.53;;;14.20;68.40;;;;;;5070001;28;20068;-74
2022/03/31 13:10:25;;;;;;;12.82;4.75;;;14.10;68.50;;;;;;5036524;28;20043;-74
2022/03/31 13:12:52;;;;;;;15.70;7.50;;;14.10;68.70;;;;;;5037039;28;20059;-74
2022/03/31 13:15:21;;;;;;;7.45;3.70;;;14.00;68.60;;;;;;5054483;28;20397;-74